Terminal Aerodrome Forecast
Issued by NWS

Home | Current Version | Previous Version | Text Only | Print | Product List | Glossary On
Versions: 1 2 3 4 5 6 7 8 9 10 11 12 13 14 15 16 17 18 19 20 21 22 23 24 25
000
FTUS42 KJAX 311700
TAFVQQ
TAF
KVQQ 311722Z 3118/0118 32007KT P6SM SCT040
     FM010000 27005KT P6SM SKC
     FM010900 29012G22KT P6SM SCT035
     FM011400 30020G30KT P6SM FEW050=

USA.gov is the U.S. government's official web portal to all federal, state and local government web resources and services.